Time;durP1;ratioP1;P1;durP2;ratioP2;P2;SDS_P1;SDS_P2;PMS_P1;PMS_P2;Temp;Humidity;BMP_temperature;BMP_pressure;BME280_temperature;BME280_humidity;BME280_pressure;Samples;Min_cycle;Max_cycle;Signal;HPM_P1;HPM_P2
2022/10/12 00:00:58;;;;;;;10.55;9.25;;;;;;;11.64;80.62;99893.61;1791705;78;20898;-78
2022/10/12 00:03:24;;;;;;;10.98;9.30;;;;;;;11.62;80.68;99892.45;1754429;80;21503;-78
2022/10/12 00:06:07;;;;;;;12.88;9.70;;;;;;;11.61;80.70;99893.94;1813766;78;20840;-78
2022/10/12 00:08:34;;;;;;;12.28;10.45;;;;;;;11.58;80.78;99891.59;1730755;81;21182;-79
2022/10/12 00:11:01;;;;;;;13.58;9.23;;;;;;;11.53;80.83;99893.94;1771327;80;20931;-79
2022/10/12 00:13:27;;;;;;;10.95;9.95;;;;;;;11.50;80.91;99894.26;1784107;80;20921;-78
2022/10/12 00:15:54;;;;;;;12.65;10.60;;;;;;;11.44;80.93;99901.11;1795560;79;21042;-79
2022/10/12 00:18:22;;;;;;;13.83;11.90;;;;;;;11.40;80.98;99898.92;1740193;81;21033;-78
2022/10/12 00:20:48;;;;;;;11.95;10.80;;;;;;;11.36;81.09;99902.43;1745377;81;21186;-79
2022/10/12 00:23:15;;;;;;;15.83;11.05;;;;;;;11.32;81.14;99903.74;1732955;81;21499;-79
2022/10/12 00:25:42;;;;;;;14.05;12.55;;;;;;;11.29;81.18;99901.92;1773465;80;20972;-79
2022/10/12 00:28:09;;;;;;;15.18;12.47;;;;;;;11.24;81.15;99902.39;1751973;80;21096;-78
2022/10/12 00:30:38;;;;;;;15.20;13.00;;;;;;;11.20;81.23;99913.06;1746540;80;20938;-79
2022/10/12 00:33:04;;;;;;;13.30;11.83;;;;;;;11.15;81.30;99906.90;1708317;81;21915;-79
2022/10/12 00:35:31;;;;;;;12.68;11.53;;;;;;;11.10;81.45;99909.22;1752737;81;20852;-79
2022/10/12 00:37:57;;;;;;;11.22;10.13;;;;;;;11.06;81.58;99906.53;1769056;80;20848;-79
2022/10/12 00:40:23;;;;;;;14.75;10.78;;;;;;;11.02;81.61;99909.20;1757444;80;20942;-79
2022/10/12 00:42:50;;;;;;;10.93;9.93;;;;;;;11.00;81.68;99910.36;1780606;80;20879;-79
2022/10/12 00:45:17;;;;;;;12.30;9.43;;;;;;;10.96;81.78;99911.66;1782268;79;21147;-79
2022/10/12 00:47:55;;;;;;;9.98;8.93;;;;;;;10.93;81.90;99910.65;1778737;80;21546;-79
2022/10/12 00:50:32;;;;;;;10.05;9.15;;;;;;;10.90;81.98;99913.14;1791747;79;21451;-79
2022/10/12 00:53:14;;;;;;;9.73;8.83;;;;;;;10.87;82.04;99913.45;1784206;80;20899;-80
2022/10/12 00:55:48;;;;;;;9.88;8.98;;;;;;;10.84;82.02;99914.30;1767256;79;21014;-79
2022/10/12 00:58:15;;;;;;;9.85;8.63;;;;;;;10.82;82.05;99910.45;1779806;80;21269;-79
2022/10/12 01:00:41;;;;;;;9.58;8.28;;;;;;;10.80;82.17;99911.60;1786280;80;21511;-79
2022/10/12 01:03:09;;;;;;;10.23;8.03;;;;;;;10.77;82.12;99910.09;1785528;80;20871;-79
2022/10/12 01:05:38;;;;;;;9.03;8.13;;;;;;;10.74;82.02;99906.95;1782022;80;21017;-79
2022/10/12 01:08:04;;;;;;;8.85;7.58;;;;;;;10.70;82.04;99914.41;1746685;80;20982;-79
2022/10/12 01:10:32;;;;;;;8.68;7.80;;;;;;;10.68;82.05;99918.22;1786616;79;21136;-78
2022/10/12 01:12:58;;;;;;;8.60;7.70;;;;;;;10.64;82.04;99917.70;1780754;80;20947;-79
2022/10/12 01:15:30;;;;;;;11.00;8.73;;;;;;;10.60;82.01;99915.53;1779961;80;20966;-79
2022/10/12 01:18:19;;;;;;;8.83;8.00;;;;;;;10.57;82.05;99916.68;1779921;79;21504;-79
2022/10/12 01:21:03;;;;;;;8.73;7.87;;;;;;;10.54;82.01;99915.66;1785461;80;20973;-79
2022/10/12 01:24:00;;;;;;;9.98;9.08;;;;;;;10.49;82.02;99916.64;1778627;80;21157;-78
2022/10/12 01:26:52;;;;;;;10.70;8.88;;;;;;;10.45;82.05;99921.44;1778598;80;20974;-78
2022/10/12 01:30:00;;;;;;;9.15;8.28;;;;;;;10.42;82.07;99920.94;1780753;79;20966;-79
2022/10/12 01:33:09;;;;;;;8.88;7.97;;;;;;;10.36;82.06;99925.55;1788222;79;20970;-79
2022/10/12 01:36:09;;;;;;;8.05;7.37;;;;;;;10.31;82.14;99926.03;1782769;80;20978;-79
2022/10/12 01:38:57;;;;;;;9.80;7.62;;;;;;;10.27;82.23;99922.52;1781139;79;21235;-79
2022/10/12 01:41:35;;;;;;;8.18;7.40;;;;;;;10.24;82.26;99921.50;1721395;80;20951;-79
2022/10/12 01:44:01;;;;;;;10.05;7.72;;;;;;;10.20;82.41;99925.45;1728114;83;21445;-79
2022/10/12 01:46:34;;;;;;;8.48;6.78;;;;;;;10.16;82.45;99918.30;1735913;82;20943;-78
2022/10/12 01:49:01;;;;;;;7.67;6.80;;;;;;;10.13;82.41;99929.73;1732838;82;20935;-79
2022/10/12 01:51:54;;;;;;;7.10;6.40;;;;;;;10.11;82.34;99930.36;1758879;81;21464;-80
2022/10/12 01:54:34;;;;;;;9.00;6.78;;;;;;;10.08;82.29;99936.83;1723179;83;20926;-78
2022/10/12 01:57:21;;;;;;;8.03;7.22;;;;;;;10.04;82.24;99935.45;1805979;79;20918;-80
2022/10/12 02:00:09;;;;;;;6.70;6.08;;;;;;;9.98;82.25;99936.58;1778394;79;20930;-80
2022/10/12 02:02:58;;;;;;;7.97;6.30;;;;;;;9.91;82.28;99941.18;1789175;79;21024;-80
2022/10/12 02:05:43;;;;;;;6.75;6.15;;;;;;;9.86;82.41;99947.45;1796982;79;21258;-80
2022/10/12 02:08:27;;;;;;;6.55;5.95;;;;;;;9.81;82.49;99947.09;1814060;79;20938;-80
2022/10/12 02:11:09;;;;;;;7.53;6.47;;;;;;;9.77;82.66;99946.23;1761335;80;20875;-79
2022/10/12 02:14:00;;;;;;;7.62;6.12;;;;;;;9.75;82.75;99948.21;1789813;80;20986;-78
2022/10/12 02:16:40;;;;;;;6.80;6.20;;;;;;;9.70;82.74;99951.30;1797385;79;21518;-79
2022/10/12 02:19:10;;;;;;;7.10;6.40;;;;;;;9.67;82.73;99949.47;1784636;79;22233;-79
2022/10/12 02:21:36;;;;;;;11.20;6.55;;;;;;;9.63;82.70;99954.24;1809965;79;21577;-79
2022/10/12 02:24:07;;;;;;;7.75;6.78;;;;;;;9.61;82.80;99959.36;1782795;79;20929;-78
2022/10/12 02:26:36;;;;;;;7.53;6.65;;;;;;;9.58;82.82;99956.52;1785560;79;20981;-78
2022/10/12 02:29:05;;;;;;;7.42;6.70;;;;;;;9.55;82.77;99954.16;1797834;79;20933;-79
2022/10/12 02:31:35;;;;;;;6.47;5.80;;;;;;;9.52;82.79;99959.78;1783131;79;21240;-79
2022/10/12 02:34:12;;;;;;;8.08;7.28;;;;;;;9.49;82.85;99952.63;1787515;79;21487;-79
2022/10/12 02:36:57;;;;;;;8.70;7.10;;;;;;;9.47;82.85;99958.56;1785583;79;21008;-79
2022/10/12 02:39:30;;;;;;;9.63;7.85;;;;;;;9.44;82.92;99960.22;1734888;79;21025;-79
2022/10/12 02:42:02;;;;;;;9.70;7.20;;;;;;;9.40;82.95;99963.66;1789654;79;20879;-79
2022/10/12 02:44:32;;;;;;;8.78;7.87;;;;;;;9.37;83.05;99962.63;1744393;81;21441;-80
2022/10/12 02:46:59;;;;;;;8.50;7.60;;;;;;;9.36;83.08;99966.77;1745244;81;21437;-79
2022/10/12 02:49:26;;;;;;;7.90;7.17;;;;;;;9.32;82.99;99967.55;1812033;78;20899;-79
2022/10/12 02:51:54;;;;;;;7.60;6.90;;;;;;;9.30;82.93;99973.52;1792149;79;20939;-79
2022/10/12 02:54:20;;;;;;;7.25;6.33;;;;;;;9.25;82.93;99968.63;1753996;81;21451;-79
2022/10/12 02:56:46;;;;;;;8.43;7.17;;;;;;;9.25;82.89;99979.77;1748124;81;21082;-80
2022/10/12 02:59:14;;;;;;;9.43;6.87;;;;;;;9.21;82.98;99974.40;1760196;81;20962;-79
2022/10/12 03:01:40;;;;;;;9.88;6.92;;;;;;;9.18;82.93;99979.52;1781096;79;20925;-79
2022/10/12 03:04:07;;;;;;;7.37;6.62;;;;;;;9.16;82.94;99980.65;1765913;81;21469;-79
2022/10/12 03:06:34;;;;;;;8.73;6.42;;;;;;;9.12;82.93;99976.64;1756019;80;20974;-79
2022/10/12 03:09:01;;;;;;;7.75;6.92;;;;;;;9.10;83.02;99978.09;1731162;81;21133;-79
2022/10/12 03:11:27;;;;;;;9.10;6.87;;;;;;;9.10;83.15;99982.56;1781790;79;21408;-79
2022/10/12 03:13:54;;;;;;;7.92;6.08;;;;;;;9.09;83.10;99978.26;1783997;80;20962;-79
2022/10/12 03:16:20;;;;;;;7.53;6.78;;;;;;;9.06;83.04;99979.88;1778929;80;20934;-79
2022/10/12 03:18:49;;;;;;;6.50;5.90;;;;;;;9.03;82.99;99980.17;1818531;78;20894;-79
2022/10/12 03:21:15;;;;;;;6.83;5.97;;;;;;;9.00;83.03;99985.77;1750765;80;21754;-79
2022/10/12 03:23:42;;;;;;;7.60;6.62;;;;;;;8.96;83.04;99983.92;1780506;79;20961;-79
2022/10/12 03:26:08;;;;;;;9.75;6.17;;;;;;;8.93;83.04;99988.19;1738623;81;20942;-79
2022/10/12 03:28:35;;;;;;;8.53;6.50;;;;;;;8.91;83.01;99993.30;1784887;79;20953;-78
2022/10/12 03:31:02;;;;;;;7.60;6.42;;;;;;;8.86;82.92;99985.80;1750365;80;20985;-78
2022/10/12 03:33:28;;;;;;;6.10;5.50;;;;;;;8.83;82.92;99987.41;1742887;81;21148;-78
2022/10/12 03:35:55;;;;;;;6.65;5.75;;;;;;;8.80;82.95;99990.34;1745072;81;21550;-79
2022/10/12 03:38:21;;;;;;;6.25;5.67;;;;;;;8.74;82.86;99992.25;1740752;81;20935;-79
2022/10/12 03:40:49;;;;;;;8.48;6.58;;;;;;;8.70;82.87;99994.86;1782502;79;20946;-79
2022/10/12 03:43:16;;;;;;;10.63;7.05;;;;;;;8.66;83.00;99992.98;1747574;80;20940;-78
2022/10/12 03:45:43;;;;;;;7.00;6.30;;;;;;;8.66;83.15;99994.79;1728070;80;21171;-79
2022/10/12 03:48:09;;;;;;;8.68;6.60;;;;;;;8.65;83.28;99999.77;1746870;80;21559;-79
2022/10/12 03:50:36;;;;;;;6.95;6.12;;;;;;;8.65;83.38;99997.12;1713935;81;20917;-79
2022/10/12 03:53:04;;;;;;;7.00;6.25;;;;;;;8.65;83.46;100003.27;1753800;80;21522;-80
2022/10/12 03:55:32;;;;;;;8.73;6.37;;;;;;;8.63;83.41;100004.36;1767768;80;21542;-79
2022/10/12 03:57:58;;;;;;;6.85;6.12;;;;;;;8.60;83.42;100004.16;1747459;80;21208;-79
2022/10/12 04:00:26;;;;;;;8.20;6.42;;;;;;;8.59;83.39;100003.84;1684918;81;20976;-79
2022/10/12 04:02:54;;;;;;;9.23;7.12;;;;;;;8.57;83.37;100000.98;1718017;81;20943;-78
2022/10/12 04:05:20;;;;;;;8.93;6.47;;;;;;;8.53;83.18;100004.89;1767609;80;21018;-78
2022/10/12 04:07:47;;;;;;;9.35;7.42;;;;;;;8.48;83.16;100000.03;1767630;80;20991;-78
2022/10/12 04:10:14;;;;;;;9.50;6.90;;;;;;;8.46;83.21;100004.64;1751272;80;21947;-79
2022/10/12 04:12:40;;;;;;;6.80;6.05;;;;;;;8.44;83.25;100007.94;1740411;81;21595;-79
2022/10/12 04:15:08;;;;;;;9.43;6.62;;;;;;;8.45;83.39;100006.09;1761866;80;20931;-80
2022/10/12 04:17:36;;;;;;;7.12;6.33;;;;;;;8.47;83.51;100008.95;1761404;80;20942;-80
2022/10/12 04:20:03;;;;;;;11.57;6.87;;;;;;;8.49;83.56;100015.45;1711900;83;21053;-80
2022/10/12 04:22:31;;;;;;;6.85;5.97;;;;;;;8.50;83.63;100012.64;1758984;80;21568;-80
2022/10/12 04:24:57;;;;;;;7.67;6.40;;;;;;;8.49;83.62;100010.98;1740579;81;20958;-78
2022/10/12 04:27:23;;;;;;;7.83;6.30;;;;;;;8.47;83.63;100014.25;1712086;81;21022;-80
2022/10/12 04:29:50;;;;;;;6.53;5.92;;;;;;;8.46;83.58;100020.55;1758317;78;21491;-79
2022/10/12 04:32:17;;;;;;;8.48;6.37;;;;;;;8.43;83.53;100019.52;1777747;78;20922;-79
2022/10/12 04:34:43;;;;;;;7.10;6.20;;;;;;;8.41;83.46;100021.48;1781571;78;21503;-79
2022/10/12 04:37:10;;;;;;;7.83;7.00;;;;;;;8.38;83.45;100020.43;1781660;78;20939;-80
2022/10/12 04:39:37;;;;;;;7.55;6.25;;;;;;;8.36;83.47;100027.70;1781800;78;21550;-83
2022/10/12 04:42:05;;;;;;;10.25;6.33;;;;;;;8.35;83.46;100031.80;1776588;78;21010;-79
2022/10/12 04:44:32;;;;;;;8.45;6.70;;;;;;;8.32;83.33;100030.75;1717510;82;20979;-79
2022/10/12 04:47:00;;;;;;;7.12;6.47;;;;;;;8.28;83.31;100036.01;1731887;82;21278;-81
2022/10/12 04:49:27;;;;;;;9.33;6.10;;;;;;;8.29;83.52;100045.64;1732425;81;20962;-79
2022/10/12 04:51:54;;;;;;;8.73;6.42;;;;;;;8.30;83.69;100045.49;1735551;81;21029;-80
2022/10/12 04:54:23;;;;;;;10.70;7.60;;;;;;;8.37;83.90;100051.08;1729300;81;20948;-80
2022/10/12 04:56:50;;;;;;;8.00;6.80;;;;;;;8.41;83.92;100044.50;1719234;82;21057;-80
2022/10/12 04:59:16;;;;;;;6.85;6.25;;;;;;;8.44;83.84;100053.50;1732573;81;22295;-79
2022/10/12 05:01:43;;;;;;;8.65;6.00;;;;;;;8.50;83.80;100051.58;1734910;81;20950;-80
2022/10/12 05:04:10;;;;;;;9.03;6.83;;;;;;;8.59;83.90;100049.41;1733779;82;20872;-79
2022/10/12 05:06:36;;;;;;;12.40;7.08;;;;;;;8.71;84.09;100053.55;1728813;82;20987;-80
2022/10/12 05:09:03;;;;;;;10.90;7.55;;;;;;;8.88;84.24;100054.61;1735727;82;21013;-80
2022/10/12 05:11:30;;;;;;;10.32;8.33;;;;;;;9.08;84.24;100058.85;1736028;82;21159;-78
2022/10/12 05:13:57;;;;;;;10.28;8.50;;;;;;;9.28;84.04;100060.45;1729241;81;21484;-79
2022/10/12 05:16:24;;;;;;;15.40;8.35;;;;;;;9.49;83.92;100064.98;1735460;82;21025;-80
2022/10/12 05:18:51;;;;;;;11.83;8.55;;;;;;;9.76;83.42;100066.28;1718350;81;20991;-80
2022/10/12 05:21:18;;;;;;;11.48;8.95;;;;;;;10.01;82.96;100059.88;1719122;81;20907;-81
2022/10/12 05:23:50;;;;;;;13.53;8.30;;;;;;;10.28;82.39;100060.63;1727584;81;21159;-79
2022/10/12 05:26:17;;;;;;;12.20;8.43;;;;;;;10.56;81.50;100061.32;1732882;81;21519;-81
2022/10/12 05:28:44;;;;;;;12.20;8.60;;;;;;;10.82;80.70;100063.48;1714034;81;21003;-79
2022/10/12 05:31:11;;;;;;;12.35;7.83;;;;;;;11.08;79.87;100056.30;1704133;83;21070;-81
2022/10/12 05:33:38;;;;;;;12.78;7.72;;;;;;;11.27;79.00;100062.37;1727437;80;20963;-75
2022/10/12 05:36:05;;;;;;;9.38;8.43;;;;;;;11.42;78.14;100060.26;1739311;80;21913;-79
2022/10/12 05:38:32;;;;;;;16.60;8.53;;;;;;;11.54;77.10;100056.81;1723558;80;20990;-80
2022/10/12 05:40:59;;;;;;;8.15;7.33;;;;;;;11.68;76.52;100065.03;1754984;80;20944;-81
2022/10/12 05:43:25;;;;;;;11.03;7.75;;;;;;;11.89;76.29;100068.56;1757268;79;20986;-79
2022/10/12 05:45:52;;;;;;;9.65;7.55;;;;;;;12.07;75.51;100063.92;1777656;80;21038;-81
2022/10/12 05:48:18;;;;;;;10.25;7.17;;;;;;;12.28;74.82;100072.27;1769385;80;21793;-79
2022/10/12 05:50:45;;;;;;;10.70;8.28;;;;;;;12.55;74.03;100065.75;1791014;79;21044;-81
2022/10/12 05:53:13;;;;;;;14.58;7.53;;;;;;;12.90;72.72;100072.05;1782649;79;20950;-79
2022/10/12 05:55:40;;;;;;;11.83;7.72;;;;;;;13.31;71.67;100070.59;1775646;79;21491;-77
2022/10/12 05:58:06;;;;;;;13.18;8.68;;;;;;;13.73;70.34;100075.06;1737098;79;21007;-80
2022/10/12 06:00:33;;;;;;;7.62;6.92;;;;;;;14.12;68.65;100078.98;1778718;79;21226;-80
2022/10/12 06:03:00;;;;;;;9.50;7.50;;;;;;;14.27;66.69;100074.52;1775836;79;20910;-77
2022/10/12 06:05:27;;;;;;;8.68;6.03;;;;;;;14.30;65.32;100080.84;1773138;79;21426;-78
2022/10/12 06:07:54;;;;;;;7.12;6.40;;;;;;;14.33;64.61;100077.84;1767388;79;20969;-75
2022/10/12 06:10:22;;;;;;;7.72;6.95;;;;;;;14.44;63.63;100081.44;1783645;79;20875;-78
2022/10/12 06:12:48;;;;;;;7.85;6.97;;;;;;;14.61;63.11;100080.27;1780433;79;21129;-72
2022/10/12 06:15:15;;;;;;;9.73;8.13;;;;;;;14.87;62.42;100079.00;1755871;79;20969;-79
2022/10/12 06:17:42;;;;;;;10.63;8.00;;;;;;;15.13;61.54;100076.71;1760170;79;21428;-76
2022/10/12 06:20:10;;;;;;;11.85;8.53;;;;;;;15.42;60.63;100076.70;1774799;79;20914;-76
2022/10/12 06:22:38;;;;;;;10.50;9.23;;;;;;;15.75;59.25;100073.09;1765009;79;20839;-76
2022/10/12 06:25:05;;;;;;;10.75;8.38;;;;;;;16.01;57.94;100074.22;1776130;79;21223;-76
2022/10/12 06:27:33;;;;;;;12.18;7.95;;;;;;;16.24;57.10;100072.67;1748768;79;21466;-79
2022/10/12 06:30:00;;;;;;;8.65;7.85;;;;;;;16.49;56.18;100075.30;1774682;79;20879;-77
2022/10/12 06:32:26;;;;;;;11.78;9.60;;;;;;;16.75;55.31;100077.90;1784891;79;20894;-79
2022/10/12 06:34:53;;;;;;;11.38;9.38;;;;;;;17.06;54.65;100077.81;1774309;80;21100;-74
2022/10/12 06:37:19;;;;;;;15.68;9.65;;;;;;;17.46;53.74;100080.20;1772994;79;21038;-76
2022/10/12 06:39:46;;;;;;;10.93;9.88;;;;;;;17.84;52.87;100076.53;1739803;80;20967;-75
2022/10/12 06:42:12;;;;;;;11.43;10.30;;;;;;;18.18;51.65;100082.30;1744815;81;20954;-77
2022/10/12 06:44:40;;;;;;;12.37;9.65;;;;;;;18.47;50.50;100079.27;1739597;80;20996;-77
2022/10/12 06:47:08;;;;;;;13.43;10.00;;;;;;;18.80;49.68;100081.94;1767594;80;20923;-77
2022/10/12 06:49:35;;;;;;;9.93;8.70;;;;;;;19.10;48.71;100084.00;1772267;80;21037;-77
2022/10/12 06:52:02;;;;;;;10.58;8.88;;;;;;;19.41;48.10;100083.31;1766890;80;20891;-74
2022/10/12 06:54:30;;;;;;;17.07;9.65;;;;;;;19.71;46.99;100082.24;1747456;80;21412;-77
2022/10/12 06:56:56;;;;;;;11.30;9.90;;;;;;;19.80;46.27;100085.53;1766335;80;20942;-79
2022/10/12 06:59:23;;;;;;;16.50;9.45;;;;;;;19.89;45.72;100081.05;1743085;80;20997;-78
2022/10/12 07:01:50;;;;;;;10.10;9.08;;;;;;;19.91;45.31;100087.56;1756966;80;21153;-78
2022/10/12 07:04:18;;;;;;;11.30;8.68;;;;;;;19.89;45.04;100086.95;1744642;80;20970;-77
2022/10/12 07:06:45;;;;;;;10.13;8.38;;;;;;;19.91;44.99;100091.61;1764843;80;21098;-77
2022/10/12 07:09:11;;;;;;;9.38;8.33;;;;;;;20.00;44.83;100093.00;1755130;80;20887;-77
2022/10/12 07:11:38;;;;;;;12.53;7.60;;;;;;;20.13;44.73;100094.27;1775747;80;20887;-77
2022/10/12 07:14:06;;;;;;;9.85;8.20;;;;;;;20.35;44.27;100096.98;1776115;80;21047;-78
2022/10/12 07:16:33;;;;;;;12.95;7.70;;;;;;;20.56;43.74;100093.92;1748031;80;21017;-78
2022/10/12 07:19:00;;;;;;;8.33;7.55;;;;;;;20.74;43.51;100095.84;1776149;80;20932;-78
2022/10/12 07:21:28;;;;;;;11.08;7.50;;;;;;;20.94;43.11;100090.55;1751187;80;20896;-77
2022/10/12 07:23:54;;;;;;;9.10;6.92;;;;;;;21.12;42.69;100094.39;1764373;80;20911;-78
2022/10/12 07:26:21;;;;;;;8.68;7.67;;;;;;;21.28;42.45;100087.02;1757687;80;21802;-77
2022/10/12 07:28:47;;;;;;;9.50;7.58;;;;;;;21.36;41.74;100087.55;1770487;80;21741;-78
2022/10/12 07:31:14;;;;;;;10.65;7.05;;;;;;;21.39;41.68;100085.75;1754074;80;21031;-77
2022/10/12 07:33:40;;;;;;;10.25;8.08;;;;;;;21.54;41.68;100088.90;1775918;80;20930;-77
2022/10/12 07:36:07;;;;;;;8.60;6.55;;;;;;;21.76;41.42;100082.49;1776050;80;20966;-78
2022/10/12 07:38:34;;;;;;;12.53;7.75;;;;;;;21.85;40.42;100089.75;1749628;80;21250;-78
2022/10/12 07:41:02;;;;;;;8.80;7.80;;;;;;;21.74;40.49;100084.61;1768081;80;20865;-77
2022/10/12 07:43:29;;;;;;;14.05;7.92;;;;;;;21.67;40.41;100085.20;1748520;80;20922;-77
2022/10/12 07:45:56;;;;;;;11.48;7.87;;;;;;;21.50;40.32;100081.47;1778498;80;21002;-77
2022/10/12 07:48:22;;;;;;;12.73;7.90;;;;;;;21.39;40.54;100079.50;1753765;80;21424;-78
2022/10/12 07:50:49;;;;;;;8.90;7.00;;;;;;;21.39;40.61;100079.50;1748424;81;21129;-78
2022/10/12 07:53:17;;;;;;;7.72;6.92;;;;;;;21.50;40.27;100071.99;1748567;81;20903;-76
2022/10/12 07:55:44;;;;;;;8.48;7.00;;;;;;;21.59;40.57;100068.45;1759096;80;20981;-77
2022/10/12 07:58:11;;;;;;;12.25;7.50;;;;;;;21.83;40.28;100082.39;1778864;80;20998;-78
2022/10/12 08:00:38;;;;;;;8.58;7.67;;;;;;;22.05;39.52;100080.88;1767999;80;20871;-77
2022/10/12 08:03:05;;;;;;;8.55;6.72;;;;;;;22.08;39.49;100075.81;1756911;81;21154;-77
2022/10/12 08:05:32;;;;;;;8.33;6.30;;;;;;;22.22;39.20;100076.45;1775208;80;20887;-77
2022/10/12 08:07:59;;;;;;;8.13;7.05;;;;;;;22.36;38.83;100079.27;1763872;80;21437;-78
2022/10/12 08:10:26;;;;;;;7.97;6.85;;;;;;;22.44;38.17;100083.00;1769523;80;20973;-78
2022/10/12 08:12:52;;;;;;;10.85;7.10;;;;;;;22.34;38.36;100081.39;1760894;80;20835;-78
2022/10/12 08:15:19;;;;;;;11.83;7.17;;;;;;;22.41;38.10;100080.75;1759619;80;21623;-77
2022/10/12 08:17:47;;;;;;;9.10;7.10;;;;;;;22.36;38.08;100082.50;1753694;80;20978;-79
2022/10/12 08:20:14;;;;;;;9.83;8.18;;;;;;;22.37;38.13;100086.33;1764173;80;21455;-77
2022/10/12 08:22:40;;;;;;;9.05;6.42;;;;;;;22.48;37.87;100083.34;1771655;80;20903;-77
2022/10/12 08:25:07;;;;;;;11.70;7.17;;;;;;;22.55;37.73;100081.37;1772149;80;20931;-77
2022/10/12 08:27:34;;;;;;;8.65;6.25;;;;;;;22.82;37.41;100081.23;1778543;80;21545;-77
2022/10/12 08:30:01;;;;;;;8.78;6.47;;;;;;;23.12;36.93;100081.13;1754941;81;20934;-77
2022/10/12 08:32:29;;;;;;;9.03;6.25;;;;;;;23.40;36.21;100081.77;1756000;81;20990;-79
2022/10/12 08:34:56;;;;;;;7.85;5.87;;;;;;;23.46;35.69;100078.94;1700567;82;21000;-77
2022/10/12 08:37:27;;;;;;;12.10;6.42;;;;;;;23.68;35.42;100078.56;1749276;82;20978;-78
2022/10/12 08:39:53;;;;;;;9.68;6.05;;;;;;;23.98;35.05;100072.92;1762151;81;21220;-78
2022/10/12 08:42:52;;;;;;;12.40;6.17;;;;;;;24.32;34.44;100076.03;1756881;81;21544;-78
2022/10/12 08:45:39;;;;;;;12.50;5.90;;;;;;;24.62;33.42;100077.59;1757073;80;21594;-77
2022/10/12 08:48:18;;;;;;;15.72;5.33;;;;;;;24.80;32.70;100070.56;1756959;80;20954;-79
2022/10/12 08:50:53;;;;;;;8.10;5.40;;;;;;;24.91;32.91;100068.30;1778473;80;20980;-77
2022/10/12 08:53:27;;;;;;;11.57;5.20;;;;;;;25.06;32.57;100067.16;1768486;80;21079;-78
2022/10/12 08:55:55;;;;;;;9.25;5.67;;;;;;;25.13;32.45;100063.17;1761497;80;21546;-76
2022/10/12 08:58:36;;;;;;;7.97;5.85;;;;;;;25.23;31.87;100065.77;1778474;80;20942;-77
2022/10/12 09:01:31;;;;;;;9.88;6.58;;;;;;;25.25;31.90;100065.80;1778340;79;20891;-77
2022/10/12 09:04:24;;;;;;;7.00;5.20;;;;;;;25.44;31.66;100063.61;1760266;80;20962;-79
2022/10/12 09:07:09;;;;;;;5.28;3.85;;;;;;;25.64;31.46;100064.71;1822355;78;21150;-77
2022/10/12 09:09:56;;;;;;;10.63;4.78;;;;;;;25.86;30.51;100063.87;1820821;78;20886;-77
2022/10/12 09:13:11;;;;;;;11.00;5.08;;;;;;;25.81;30.43;100071.99;1797614;78;21544;-79
2022/10/12 09:15:52;;;;;;;12.90;7.03;;;;;;;25.86;29.96;100069.31;1794706;78;20982;-78
2022/10/12 09:18:38;;;;;;;16.15;5.97;;;;;;;25.52;30.40;100068.11;1804860;78;20843;-76
2022/10/12 09:21:06;;;;;;;13.78;6.10;;;;;;;25.18;30.55;100064.61;1776163;80;21167;-77
2022/10/12 09:23:38;;;;;;;12.20;7.58;;;;;;;25.11;30.72;100065.86;1777132;80;21390;-77
2022/10/12 09:26:18;;;;;;;13.28;6.97;;;;;;;25.10;30.94;100073.77;1776549;80;20887;-78
2022/10/12 09:28:54;;;;;;;9.75;4.92;;;;;;;25.31;30.83;100070.25;1775968;80;20969;-78
2022/10/12 09:31:38;;;;;;;7.10;4.35;;;;;;;25.49;30.51;100064.53;1775566;80;20946;-78
2022/10/12 09:34:06;;;;;;;5.45;3.77;;;;;;;25.74;30.06;100064.83;1775917;80;21160;-78
2022/10/12 09:36:39;;;;;;;8.65;4.10;;;;;;;26.07;29.70;100063.01;1775748;79;21400;-76
2022/10/12 09:39:24;;;;;;;6.10;3.75;;;;;;;26.49;29.12;100062.59;1775927;80;21043;-78
2022/10/12 09:41:50;;;;;;;6.92;3.52;;;;;;;26.66;28.57;100060.58;1737071;81;21611;-78
2022/10/12 09:45:02;;;;;;;6.85;3.67;;;;;;;26.62;28.34;100059.44;1781988;80;21563;-78
2022/10/12 09:47:31;;;;;;;4.53;3.10;;;;;;;26.42;28.13;100062.00;1754429;80;21167;-78
2022/10/12 09:50:05;;;;;;;5.45;2.87;;;;;;;26.28;28.12;100059.44;1784829;80;20918;-78
2022/10/12 09:52:41;;;;;;;4.90;3.10;;;;;;;26.37;27.97;100059.23;1774489;80;21428;-78
2022/10/12 09:55:20;;;;;;;5.50;3.00;;;;;;;26.73;27.33;100052.15;1753630;80;21407;-78
2022/10/12 09:57:56;;;;;;;4.85;3.50;;;;;;;27.04;26.72;100049.14;1777212;79;20983;-78
2022/10/12 10:00:28;;;;;;;7.12;4.47;;;;;;;27.30;26.67;100051.72;1755255;81;21231;-78
2022/10/12 10:02:55;;;;;;;15.15;5.20;;;;;;;27.55;26.40;100049.69;1762636;80;20934;-79
2022/10/12 10:05:34;;;;;;;7.25;5.45;;;;;;;27.31;26.64;100049.81;1747550;80;21074;-76
2022/10/12 10:08:22;;;;;;;10.48;6.65;;;;;;;26.99;26.76;100051.27;1756054;81;20899;-76
2022/10/12 10:10:57;;;;;;;7.30;5.87;;;;;;;26.43;27.24;100042.38;1756612;81;20978;-76
2022/10/12 10:13:27;;;;;;;10.30;7.20;;;;;;;25.75;27.98;100047.94;1761266;81;21217;-78
2022/10/12 10:16:08;;;;;;;10.65;7.78;;;;;;;25.08;28.72;100048.14;1745650;81;21027;-78
2022/10/12 10:18:47;;;;;;;10.63;8.83;;;;;;;24.49;29.38;100046.94;1757115;80;20934;-78
2022/10/12 10:21:33;;;;;;;11.03;8.55;;;;;;;24.05;29.69;100042.33;1757217;81;20977;-78
2022/10/12 10:24:02;;;;;;;13.93;7.80;;;;;;;23.59;29.87;100043.89;1756851;80;20890;-78
2022/10/12 10:26:32;;;;;;;12.58;8.65;;;;;;;23.17;30.36;100045.44;1756450;81;21371;-77
2022/10/12 10:29:27;;;;;;;12.45;6.20;;;;;;;23.01;30.68;100046.69;1749469;80;20944;-77
2022/10/12 10:32:39;;;;;;;9.03;5.30;;;;;;;22.97;30.86;100041.45;1736688;81;21589;-77
2022/10/12 10:34:47;;;;;;;5.55;4.42;;;;;;;23.00;30.96;100043.66;1751053;80;21668;-77
2022/10/12 10:37:19;;;;;;;7.30;4.97;;;;;;;23.08;30.90;100038.71;1757249;81;20952;-78
2022/10/12 10:39:48;;;;;;;4.00;3.12;;;;;;;23.09;30.81;100037.66;1756548;80;21804;-78
2022/10/12 10:42:23;;;;;;;5.75;2.90;;;;;;;23.14;30.74;100039.65;1758822;80;20978;-78
2022/10/12 10:45:00;;;;;;;6.87;3.08;;;;;;;23.15;30.73;100042.11;1744288;81;21011;-77
2022/10/12 10:47:26;;;;;;;5.85;3.17;;;;;;;23.10;30.79;100040.64;1707113;82;20948;-78
2022/10/12 10:49:58;;;;;;;7.33;3.83;;;;;;;22.97;31.11;100045.52;1706915;82;21661;-77
2022/10/12 10:52:34;;;;;;;5.70;3.80;;;;;;;22.70;31.58;100042.45;1720505;82;21785;-77
2022/10/12 10:55:22;;;;;;;6.03;3.90;;;;;;;22.43;32.14;100043.91;1715500;82;20901;-78
2022/10/12 10:58:02;;;;;;;13.78;4.45;;;;;;;22.14;32.65;100042.91;1724702;82;20999;-78
2022/10/12 11:00:30;;;;;;;17.98;5.30;;;;;;;21.82;32.92;100042.29;1717430;82;20967;-76
2022/10/12 11:03:05;;;;;;;11.95;4.78;;;;;;;21.42;33.40;100043.36;1723953;82;21569;-77
2022/10/12 11:05:44;;;;;;;12.98;4.90;;;;;;;21.09;34.00;100041.53;1706400;82;21151;-79
2022/10/12 11:08:26;;;;;;;11.83;4.97;;;;;;;20.79;34.54;100045.98;1706848;82;20969;-78
2022/10/12 11:11:01;;;;;;;14.45;7.28;;;;;;;20.46;35.30;100042.23;1716998;82;21450;-76
2022/10/12 11:13:35;;;;;;;10.88;6.83;;;;;;;19.97;36.02;100044.30;1719175;82;20948;-79
2022/10/12 11:16:28;;;;;;;11.93;6.17;;;;;;;19.97;36.02;100044.30;1696083;82;20891;-78
2022/10/12 11:18:57;;;;;;;8.18;4.42;;;;;;;19.77;36.46;100042.77;1697420;82;21078;-76
2022/10/12 11:21:44;;;;;;;4.58;3.45;;;;;;;19.63;36.88;100041.48;1706907;82;21643;-77
2022/10/12 11:24:17;;;;;;;5.12;3.45;;;;;;;19.53;36.94;100043.82;1712938;82;20955;-77
2022/10/12 11:26:49;;;;;;;4.70;2.70;;;;;;;19.41;37.03;100036.61;1724263;82;20995;-76
2022/10/12 11:29:16;;;;;;;5.72;1.82;;;;;;;19.28;36.74;100041.52;1731865;82;21523;-76
2022/10/12 11:32:02;;;;;;;3.55;2.02;;;;;;;19.16;36.53;100037.83;1706914;82;21246;-76
2022/10/12 11:34:33;;;;;;;5.83;2.30;;;;;;;19.04;36.33;100040.85;1707010;82;21005;-78
2022/10/12 11:37:00;;;;;;;4.47;1.92;;;;;;;18.88;36.50;100038.09;1726143;82;20920;-77
2022/10/12 11:39:35;;;;;;;3.10;1.70;;;;;;;18.72;36.83;100043.11;1712274;82;21056;-77
2022/10/12 11:42:03;;;;;;;5.08;2.37;;;;;;;18.59;37.15;100039.08;1725183;82;20935;-77
2022/10/12 11:44:44;;;;;;;7.53;2.15;;;;;;;18.47;37.52;100043.73;1729599;82;21606;-77
2022/10/12 11:47:37;;;;;;;5.37;2.42;;;;;;;18.40;37.82;100041.53;1759981;80;20887;-77